Gerber, California
Current Conditions -  °F | °C
As of 12:23 PM on Thursday 18 Dec 2014 (Local Time) from KRBL Reporting Station
Haze Haze  
Wind Chill: 51°   Ceiling: 1300
Heat Index: 51°   Visibility: 2.5mi
Dew Point: 49°   Wind: 10mph
Humidity: 92%   Direction: 160°SSE
Pressure: 30.18"   Gusts: NA
Location:  40.06°N, 122.15°W
Report Text: KRBL 182023Z AUTO 16009KT 2 1/2SM BR SCT009 BKN013 OVC020 11/09 A3018 RMK AO2 RAB08E20 P0000 T01060094
Loading
Personal Weather Stations






























Interactive Weather Map New forecast layout! Learn more

10-Day Weather Forecast

Advertisements
Track Severe Weather on mobile